Time;durP1;ratioP1;P1;durP2;ratioP2;P2;SDS_P1;SDS_P2;PMS_P1;PMS_P2;Temp;Humidity;BMP_temperature;BMP_pressure;BME280_temperature;BME280_humidity;BME280_pressure;Samples;Min_cycle;Max_cycle;Signal;HPM_P1;HPM_P2
2022/03/20 00:00:32;;;;;;;4.07;1.00;;;;;;;0.45;100.00;104582.50;4808823;29;20428;-76
2022/03/20 00:02:58;;;;;;;7.78;1.20;;;;;;;0.37;100.00;104573.03;4794003;29;20062;-77
2022/03/20 00:05:24;;;;;;;3.83;1.23;;;;;;;0.13;100.00;104537.44;4811286;29;20034;-77
2022/03/20 00:07:49;;;;;;;4.95;1.20;;;;;;;-0.02;100.00;104510.44;4816651;29;20062;-76
2022/03/20 00:10:16;;;;;;;7.93;2.03;;;;;;;0.24;100.00;104553.94;4803265;29;20046;-77
2022/03/20 00:12:42;;;;;;;8.10;2.30;;;;;;;0.27;100.00;104579.47;4792565;29;20035;-77
2022/03/20 00:15:09;;;;;;;7.53;2.28;;;;;;;0.17;100.00;104578.84;4791694;29;20081;-77
2022/03/20 00:17:35;;;;;;;5.13;2.20;;;;;;;-0.02;100.00;104558.09;4790923;29;20054;-77
2022/03/20 00:20:02;;;;;;;6.10;2.20;;;;;;;0.12;100.00;104578.06;4791552;29;20462;-77
2022/03/20 00:22:27;;;;;;;6.90;2.08;;;;;;;0.09;100.00;104571.06;4797395;29;20062;-77
2022/03/20 00:24:53;;;;;;;5.38;2.33;;;;;;;-0.14;100.00;104528.41;4822736;29;20031;-76
2022/03/20 00:27:19;;;;;;;5.72;2.30;;;;;;;0.12;100.00;104571.00;4809191;29;20076;-76
2022/03/20 00:29:44;;;;;;;5.65;2.28;;;;;;;0.02;100.00;104543.00;4797460;29;20039;-77
2022/03/20 00:32:13;;;;;;;8.48;2.58;;;;;;;0.23;100.00;104563.66;4807916;29;20038;-76
2022/03/20 00:34:40;;;;;;;6.75;2.28;;;;;;;0.26;100.00;104560.03;4795760;29;20026;-76
2022/03/20 00:37:07;;;;;;;8.25;2.38;;;;;;;0.28;100.00;104567.97;4810376;29;20038;-77
2022/03/20 00:39:33;;;;;;;10.02;1.95;;;;;;;0.16;100.00;104545.31;4811670;29;20376;-77
2022/03/20 00:41:59;;;;;;;3.97;1.40;;;;;;;0.27;100.00;104559.16;4807622;29;20058;-77
2022/03/20 00:44:24;;;;;;;6.38;1.52;;;;;;;0.22;100.00;104555.75;4807863;29;20027;-77
2022/03/20 00:46:50;;;;;;;3.92;1.58;;;;;;;0.28;100.00;104566.19;4807603;29;20050;-77
2022/03/20 00:49:16;;;;;;;6.30;1.40;;;;;;;0.27;100.00;104567.09;4808460;29;20031;-78
2022/03/20 00:51:42;;;;;;;4.38;1.48;;;;;;;0.26;100.00;104565.34;4791281;29;20046;-77
2022/03/20 00:54:10;;;;;;;8.93;1.50;;;;;;;0.23;100.00;104557.47;4807365;29;20030;-77
2022/03/20 00:56:36;;;;;;;6.13;1.50;;;;;;;0.22;100.00;104555.75;4814873;29;20351;-77
2022/03/20 00:59:03;;;;;;;3.58;1.60;;;;;;;0.16;100.00;104546.16;4813703;29;20044;-77
2022/03/20 01:01:29;;;;;;;5.30;1.70;;;;;;;0.07;100.00;104534.97;4812902;29;20031;-77
2022/03/20 01:03:55;;;;;;;3.78;1.50;;;;;;;0.23;100.00;104557.47;4775748;29;20459;-77
2022/03/20 01:06:22;;;;;;;4.13;1.52;;;;;;;0.23;100.00;104554.81;4789036;30;20130;-77
2022/03/20 01:08:55;;;;;;;5.00;1.70;;;;;;;0.22;100.00;104551.31;4788797;30;20045;-77
2022/03/20 01:11:20;;;;;;;5.45;1.50;;;;;;;0.19;100.00;104559.31;4773713;30;20355;-77
2022/03/20 01:13:47;;;;;;;7.20;1.98;;;;;;;0.10;100.00;104549.00;4776108;29;20100;-77
2022/03/20 01:16:13;;;;;;;4.28;2.00;;;;;;;0.05;100.00;104556.16;4758658;30;20035;-77
2022/03/20 01:18:38;;;;;;;7.28;1.95;;;;;;;-0.03;100.00;104553.72;4762964;29;20370;-77
2022/03/20 01:21:04;;;;;;;4.85;1.67;;;;;;;-0.10;100.00;104541.53;4811200;29;20058;-77
2022/03/20 01:23:30;;;;;;;2.53;1.33;;;;;;;-0.32;100.00;104490.03;4793851;29;20073;-77
2022/03/20 01:25:55;;;;;;;5.28;1.42;;;;;;;-0.10;100.00;104535.34;4819534;29;20024;-77
2022/03/20 01:28:23;;;;;;;6.13;1.48;;;;;;;-0.05;100.00;104544.94;4776539;29;20512;-77
2022/03/20 01:30:48;;;;;;;10.25;1.63;;;;;;;-0.03;100.00;104544.91;4805485;29;20154;-77
2022/03/20 01:33:15;;;;;;;4.78;1.50;;;;;;;-0.13;100.00;104531.03;4773893;29;20043;-77
2022/03/20 01:35:41;;;;;;;3.78;1.90;;;;;;;-0.02;100.00;104546.66;4790654;29;20035;-77
2022/03/20 01:38:07;;;;;;;6.55;1.45;;;;;;;-0.05;100.00;104544.94;4806354;29;20045;-76
2022/03/20 01:40:33;;;;;;;4.43;1.48;;;;;;;-0.17;100.00;104537.28;4792053;29;20074;-77
2022/03/20 01:43:00;;;;;;;7.53;2.35;;;;;;;0.10;100.00;104551.66;4773983;30;20065;-77
2022/03/20 01:45:26;;;;;;;4.85;1.63;;;;;;;0.29;100.00;104557.31;4773074;30;20050;-77
2022/03/20 01:47:53;;;;;;;6.80;1.80;;;;;;;0.43;100.00;104547.25;4788953;30;20130;-77
2022/03/20 01:50:22;;;;;;;3.80;1.60;;;;;;;0.48;100.00;104547.13;4795292;29;20036;-77
2022/03/20 01:52:50;;;;;;;10.05;1.80;;;;;;;0.40;100.00;104528.78;4812095;29;20076;-77
2022/03/20 01:55:16;;;;;;;6.32;2.13;;;;;;;0.58;100.00;104547.75;4822647;29;20049;-77
2022/03/20 01:57:44;;;;;;;5.75;1.67;;;;;;;0.59;100.00;104545.03;4808092;29;20438;-76
2022/03/20 02:00:12;;;;;;;7.15;1.70;;;;;;;0.61;100.00;104542.34;4793110;29;20190;-77
2022/03/20 02:02:38;;;;;;;7.50;2.10;;;;;;;0.56;100.00;104533.66;4774381;29;20398;-77
2022/03/20 02:05:06;;;;;;;6.78;1.83;;;;;;;0.45;100.00;104521.56;4790742;29;20131;-77
2022/03/20 02:07:34;;;;;;;10.52;2.47;;;;;;;0.50;100.00;104533.81;4805556;29;20041;-77
2022/03/20 02:10:00;;;;;;;7.15;2.05;;;;;;;0.48;100.00;104536.50;4798088;29;20045;-77
2022/03/20 02:12:25;;;;;;;7.60;1.80;;;;;;;0.33;100.00;104510.41;4808105;29;20039;-76
2022/03/20 02:14:51;;;;;;;6.05;1.73;;;;;;;0.32;100.00;104503.41;4789969;29;20158;-77
2022/03/20 02:17:16;;;;;;;7.55;1.98;;;;;;;0.40;100.00;104523.50;4789143;29;20035;-77
2022/03/20 02:19:44;;;;;;;5.75;1.92;;;;;;;0.25;100.00;104507.13;4771786;30;20419;-76
2022/03/20 02:22:09;;;;;;;7.75;1.80;;;;;;;0.20;100.00;104505.47;4760454;30;20047;-77
2022/03/20 02:24:44;;;;;;;10.00;2.05;;;;;;;0.29;100.00;104519.38;4772335;30;20051;-77
2022/03/20 02:27:22;;;;;;;4.65;2.00;;;;;;;0.27;100.00;104514.13;4790830;29;20034;-77
2022/03/20 02:29:56;;;;;;;10.05;2.47;;;;;;;0.28;100.00;104517.63;4801878;29;20034;-77
2022/03/20 02:32:30;;;;;;;5.82;1.67;;;;;;;0.12;100.00;104501.28;4806355;29;20079;-77
2022/03/20 02:35:04;;;;;;;5.78;2.22;;;;;;;0.20;100.00;104520.50;4782671;29;20188;-77
2022/03/20 02:37:31;;;;;;;6.95;1.60;;;;;;;-0.24;100.00;104445.72;4804388;29;20031;-77
2022/03/20 02:40:03;;;;;;;6.97;2.10;;;;;;;0.07;100.00;104498.75;4789583;29;20635;-76
2022/03/20 02:42:29;;;;;;;4.25;1.70;;;;;;;0.04;100.00;104513.84;4787734;30;20177;-77
2022/03/20 02:45:06;;;;;;;7.88;1.95;;;;;;;-0.11;100.00;104478.91;4790725;29;20347;-77
2022/03/20 02:47:45;;;;;;;8.77;1.95;;;;;;;-0.03;100.00;104507.84;4787876;30;20042;-76
2022/03/20 02:50:25;;;;;;;7.75;2.10;;;;;;;-0.10;100.00;104509.78;4774379;29;20039;-77
2022/03/20 02:53:09;;;;;;;5.65;1.77;;;;;;;-0.15;100.00;104502.84;4820465;29;20042;-77
2022/03/20 02:55:36;;;;;;;8.25;1.80;;;;;;;-0.22;100.00;104511.84;4809957;29;20127;-76
2022/03/20 02:58:05;;;;;;;5.45;1.70;;;;;;;-0.30;100.00;104509.38;4780631;29;20366;-77
2022/03/20 03:00:32;;;;;;;7.63;2.00;;;;;;;-0.34;100.00;104494.47;4792965;29;20062;-77
2022/03/20 03:03:00;;;;;;;6.55;1.95;;;;;;;-0.29;100.00;104505.84;4798992;29;20027;-77
2022/03/20 03:05:29;;;;;;;7.30;1.80;;;;;;;-0.35;100.00;104495.41;4794646;29;20038;-77
2022/03/20 03:10:57;;;;;;;7.57;2.03;;;;;;;-0.35;100.00;104503.34;4801282;29;20486;-77
2022/03/20 03:13:25;;;;;;;6.28;1.92;;;;;;;-0.33;100.00;104499.75;4779876;29;20037;-77
2022/03/20 03:15:55;;;;;;;6.45;1.80;;;;;;;-0.34;100.00;104503.28;4792025;29;20031;-77
2022/03/20 03:18:22;;;;;;;5.68;2.05;;;;;;;-0.56;100.00;104476.50;4787289;29;20038;-77
2022/03/20 03:20:49;;;;;;;7.75;2.38;;;;;;;-0.47;100.00;104502.69;4814352;29;20445;-77
2022/03/20 03:23:15;;;;;;;5.30;2.00;;;;;;;-0.54;100.00;104500.25;4821015;29;20023;-77
2022/03/20 03:25:41;;;;;;;4.60;1.90;;;;;;;-0.61;100.00;104498.66;4791153;30;20100;-77
2022/03/20 03:28:09;;;;;;;7.70;2.28;;;;;;;-0.80;100.00;104484.97;4777168;29;20088;-77
2022/03/20 03:30:39;;;;;;;7.85;2.60;;;;;;;-0.80;100.00;104498.19;4790773;29;20027;-76
2022/03/20 03:33:04;;;;;;;8.80;2.40;;;;;;;-0.76;100.00;104492.81;4815885;29;20372;-77
2022/03/20 03:35:42;;;;;;;8.85;2.63;;;;;;;-0.79;100.00;104479.66;4827405;29;20116;-77
2022/03/20 03:38:12;;;;;;;6.78;2.55;;;;;;;-0.98;100.00;104454.53;4812567;29;20052;-77
2022/03/20 03:40:40;;;;;;;6.45;1.98;;;;;;;-0.76;100.00;104484.88;4826758;29;20062;-77
2022/03/20 03:43:05;;;;;;;10.07;2.10;;;;;;;-0.74;100.00;104477.78;4823326;29;20114;-77
2022/03/20 03:45:31;;;;;;;5.53;1.83;;;;;;;-0.71;100.00;104479.47;4826440;29;20473;-77
2022/03/20 03:47:56;;;;;;;8.07;2.33;;;;;;;-0.69;100.00;104479.47;4801752;29;20035;-76
2022/03/20 03:50:22;;;;;;;7.53;2.33;;;;;;;-0.74;100.00;104471.63;4816236;29;20057;-77
2022/03/20 03:52:48;;;;;;;5.97;1.95;;;;;;;-0.72;100.00;104465.41;4826552;29;20038;-76
2022/03/20 03:55:14;;;;;;;6.18;1.92;;;;;;;-0.63;100.00;104482.84;4815065;29;20343;-77
2022/03/20 03:57:47;;;;;;;6.60;2.13;;;;;;;-0.75;100.00;104454.03;4777730;29;20122;-77
2022/03/20 04:00:15;;;;;;;8.32;2.13;;;;;;;-0.68;100.00;104474.13;4774222;30;20031;-76
2022/03/20 04:02:41;;;;;;;4.22;1.88;;;;;;;-0.74;100.00;104466.31;4802040;29;20045;-77
2022/03/20 04:05:07;;;;;;;7.65;2.25;;;;;;;-0.69;100.00;104482.09;4827073;29;20362;-77
2022/03/20 04:07:33;;;;;;;6.07;2.08;;;;;;;-0.72;100.00;104480.41;4811121;29;20038;-77
2022/03/20 04:10:00;;;;;;;8.10;2.42;;;;;;;-0.74;100.00;104479.53;4811659;29;20499;-77
2022/03/20 04:12:25;;;;;;;6.13;2.20;;;;;;;-0.79;100.00;104476.16;4809169;29;20485;-76
2022/03/20 04:14:51;;;;;;;5.65;1.92;;;;;;;-0.83;100.00;104477.09;4795905;29;20034;-76
2022/03/20 04:17:16;;;;;;;7.15;2.17;;;;;;;-1.04;100.00;104447.59;4815971;29;20517;-77
2022/03/20 04:19:42;;;;;;;6.22;2.00;;;;;;;-0.90;100.00;104470.22;4797867;29;20096;-77
2022/03/20 04:22:08;;;;;;;6.65;1.85;;;;;;;-0.93;100.00;104465.00;4759431;30;20420;-76
2022/03/20 04:24:36;;;;;;;5.18;2.10;;;;;;;-0.84;100.00;104462.16;4776772;29;20086;-76
2022/03/20 04:27:02;;;;;;;7.25;1.90;;;;;;;-0.82;100.00;104441.84;4777221;30;20037;-76
2022/03/20 04:29:27;;;;;;;5.63;2.20;;;;;;;-0.62;100.00;104466.06;4791682;30;20702;-77
2022/03/20 04:31:55;;;;;;;9.05;2.45;;;;;;;-0.51;100.00;104484.31;4763375;29;20042;-76
2022/03/20 04:34:23;;;;;;;5.55;1.90;;;;;;;-0.45;100.00;104485.94;4825992;29;20109;-77
2022/03/20 04:36:48;;;;;;;6.63;1.98;;;;;;;-0.50;100.00;104464.88;4805581;29;20117;-76
2022/03/20 04:39:14;;;;;;;11.18;2.30;;;;;;;-0.53;100.00;104464.94;4817156;29;20405;-76
2022/03/20 04:41:41;;;;;;;8.65;2.20;;;;;;;-0.78;100.00;104425.00;4800489;29;20051;-76
2022/03/20 04:44:07;;;;;;;7.05;2.28;;;;;;;-0.47;100.00;104463.03;4822677;29;20026;-77
2022/03/20 04:46:33;;;;;;;8.23;2.13;;;;;;;-0.39;100.00;104472.56;4829178;29;20068;-76
2022/03/20 04:59:55;;;;;;;7.20;1.90;;;;;;;-0.41;100.00;104438.19;4793061;29;20046;-76
2022/03/20 05:02:21;;;;;;;7.70;2.33;;;;;;;-0.18;100.00;104476.47;4780918;29;20039;-76
2022/03/20 05:04:46;;;;;;;6.47;2.30;;;;;;;-0.24;100.00;104474.81;4789206;30;20066;-77
2022/03/20 05:07:12;;;;;;;5.50;2.10;;;;;;;-0.25;100.00;104471.31;4800680;29;20030;-76
2022/03/20 05:15:08;;;;;;;7.88;1.90;;;;;;;-0.26;100.00;104455.47;4824913;29;20050;-76
2022/03/20 05:17:34;;;;;;;6.93;2.08;;;;;;;-0.28;100.00;104447.56;4791505;29;20097;-76
2022/03/20 05:19:59;;;;;;;9.18;2.13;;;;;;;-0.11;100.00;104473.59;4794197;29;20476;-77
2022/03/20 05:22:25;;;;;;;12.63;2.13;;;;;;;-0.16;100.00;104464.94;4807271;29;20502;-76
2022/03/20 05:24:50;;;;;;;7.70;2.10;;;;;;;-0.08;100.00;104473.53;4759947;30;20031;-76
2022/03/20 05:27:15;;;;;;;7.70;2.08;;;;;;;-0.09;100.00;104471.81;4796700;29;20076;-76
2022/03/20 05:29:41;;;;;;;6.45;2.13;;;;;;;-0.13;100.00;104475.44;4808915;29;20034;-76
2022/03/20 05:32:08;;;;;;;6.38;1.95;;;;;;;-0.14;100.00;104478.97;4820533;29;20026;-76
2022/03/20 05:34:34;;;;;;;4.43;2.03;;;;;;;-0.14;100.00;104478.97;4809148;29;20141;-76
2022/03/20 05:37:00;;;;;;;9.98;2.70;;;;;;;-0.24;100.00;104462.44;4801797;29;20072;-77
2022/03/20 05:39:26;;;;;;;10.02;2.42;;;;;;;-0.21;100.00;104482.69;4809349;29;20030;-76
2022/03/20 05:41:53;;;;;;;6.90;1.90;;;;;;;-0.22;100.00;104485.38;4767133;30;20475;-76
2022/03/20 05:44:23;;;;;;;3.95;1.92;;;;;;;-0.33;100.00;104467.09;4788211;30;20035;-76
2022/03/20 05:46:50;;;;;;;4.22;1.80;;;;;;;-0.24;100.00;104467.75;4790137;29;20073;-76
2022/03/20 05:49:16;;;;;;;6.43;1.92;;;;;;;-0.11;100.00;104478.91;4806473;29;20035;-76
2022/03/20 05:51:43;;;;;;;8.45;1.98;;;;;;;-0.15;100.00;104471.94;4807040;29;20053;-76
2022/03/20 05:54:10;;;;;;;3.97;1.92;;;;;;;-0.06;100.00;104473.50;4809198;29;20030;-76
2022/03/20 05:59:19;;;;;;;7.97;2.20;;;;;;;-0.13;100.00;104445.44;4774868;30;20554;-76
2022/03/20 06:01:45;;;;;;;8.20;2.25;;;;;;;0.08;100.00;104463.41;4801700;29;20110;-76
2022/03/20 06:04:15;;;;;;;7.95;2.42;;;;;;;0.33;100.00;104487.47;4825157;29;20517;-76
2022/03/20 06:06:42;;;;;;;6.55;2.42;;;;;;;0.44;100.00;104489.81;4807859;29;20034;-77
2022/03/20 06:09:08;;;;;;;5.15;2.10;;;;;;;0.33;100.00;104445.09;4794424;29;20038;-76
2022/03/20 06:11:34;;;;;;;6.88;2.20;;;;;;;0.67;100.00;104483.88;4805353;29;20458;-76
2022/03/20 06:14:03;;;;;;;7.03;2.22;;;;;;;0.83;100.00;104490.47;4824937;29;20042;-76
2022/03/20 06:16:30;;;;;;;7.80;2.25;;;;;;;0.85;100.00;104488.63;4824419;29;20098;-76
2022/03/20 06:18:57;;;;;;;4.88;1.90;;;;;;;0.92;100.00;104484.00;4809400;29;20038;-76
2022/03/20 06:21:23;;;;;;;7.80;2.42;;;;;;;1.06;100.00;104488.91;4811027;29;20046;-76
2022/03/20 06:23:55;;;;;;;6.75;1.92;;;;;;;1.10;100.00;104472.00;4790567;29;20023;-76
2022/03/20 06:26:22;;;;;;;6.15;1.65;;;;;;;1.30;100.00;104490.81;4802018;29;20031;-77
2022/03/20 06:28:48;;;;;;;4.53;2.20;;;;;;;1.41;100.00;104493.13;4796855;29;20042;-77
2022/03/20 06:31:15;;;;;;;9.48;2.80;;;;;;;1.47;100.00;104490.28;4817884;29;20488;-76
2022/03/20 06:33:41;;;;;;;7.43;2.20;;;;;;;1.57;100.00;104493.50;4795553;29;20050;-76
2022/03/20 06:36:09;;;;;;;4.75;1.77;;;;;;;1.71;100.00;104490.41;4782596;29;20034;-76
2022/03/20 06:38:35;;;;;;;6.68;2.17;;;;;;;1.62;100.00;104457.03;4813422;29;20045;-76
2022/03/20 06:41:01;;;;;;;6.00;1.85;;;;;;;1.75;100.00;104463.69;4813565;29;20058;-77
2022/03/20 06:43:29;;;;;;;5.25;2.25;;;;;;;1.97;100.00;104476.25;4827600;29;20026;-76
2022/03/20 06:45:56;;;;;;;5.57;2.17;;;;;;;1.91;100.00;104460.53;4823536;29;20117;-77
2022/03/20 06:48:22;;;;;;;6.75;2.33;;;;;;;2.08;100.00;104453.69;4823783;29;20080;-77
2022/03/20 06:50:48;;;;;;;5.40;2.30;;;;;;;2.37;100.00;104491.66;4828074;29;20034;-76
2022/03/20 06:53:13;;;;;;;6.97;2.10;;;;;;;2.49;100.00;104485.06;4814413;29;20481;-77
2022/03/20 06:55:41;;;;;;;6.40;2.00;;;;;;;2.51;100.00;104477.88;4809588;29;20465;-77
2022/03/20 06:58:06;;;;;;;5.55;1.80;;;;;;;2.61;100.00;104473.94;4792560;29;20053;-76
2022/03/20 07:00:32;;;;;;;7.75;2.53;;;;;;;2.89;100.00;104494.22;4793194;29;20369;-77
2022/03/20 07:03:00;;;;;;;4.47;1.88;;;;;;;2.92;100.00;104471.03;4800593;29;20126;-77
2022/03/20 07:05:26;;;;;;;4.90;2.15;;;;;;;3.25;100.00;104497.25;4810942;29;20174;-77
2022/03/20 07:07:52;;;;;;;5.65;1.90;;;;;;;3.37;100.00;104482.56;4784757;30;20083;-76
2022/03/20 07:10:22;;;;;;;4.40;2.03;;;;;;;3.53;100.00;104491.66;4791516;30;20043;-76
2022/03/20 07:12:50;;;;;;;6.70;1.98;;;;;;;3.72;100.00;104505.09;4807394;29;20551;-76
2022/03/20 07:15:18;;;;;;;7.25;1.92;;;;;;;3.82;100.00;104486.94;4802623;29;20351;-77
2022/03/20 07:17:45;;;;;;;6.60;1.95;;;;;;;4.01;100.00;104493.25;4775839;29;20039;-77
2022/03/20 07:20:12;;;;;;;5.55;1.88;;;;;;;4.23;100.00;104507.34;4778309;29;20035;-77
2022/03/20 07:22:38;;;;;;;5.00;1.80;;;;;;;4.31;100.00;104507.03;4808634;29;20069;-76
2022/03/20 07:30:32;;;;;;;5.43;1.90;;;;;;;4.79;100.00;104510.22;4808475;29;20488;-77
2022/03/20 07:32:57;;;;;;;5.60;1.90;;;;;;;4.82;100.00;104502.09;4789382;29;20035;-77
2022/03/20 07:35:24;;;;;;;5.32;1.67;;;;;;;4.81;100.00;104487.03;4790990;29;20139;-77
2022/03/20 07:37:49;;;;;;;5.55;1.92;;;;;;;5.06;100.00;104487.59;4744476;30;20386;-77
2022/03/20 07:40:15;;;;;;;4.65;1.58;;;;;;;5.18;100.00;104491.50;4777019;30;20072;-77
2022/03/20 07:42:40;;;;;;;5.65;2.00;;;;;;;5.25;100.00;104494.75;4776202;30;20036;-77
2022/03/20 07:45:06;;;;;;;4.75;1.58;;;;;;;5.38;100.00;104502.09;4748485;29;20538;-77
2022/03/20 07:47:32;;;;;;;6.10;1.65;;;;;;;5.46;100.00;104504.38;4801102;29;20034;-77
2022/03/20 07:49:58;;;;;;;7.07;1.70;;;;;;;5.55;100.00;104503.06;4774868;30;20378;-77
2022/03/20 07:52:24;;;;;;;4.75;1.85;;;;;;;5.65;100.00;104497.19;4746194;29;20039;-78
2022/03/20 07:54:49;;;;;;;4.47;1.73;;;;;;;5.79;100.00;104498.31;4785928;29;20044;-77
2022/03/20 07:57:15;;;;;;;5.07;1.80;;;;;;;5.84;100.00;104486.44;4762734;29;20038;-78
2022/03/20 07:59:42;;;;;;;4.07;1.77;;;;;;;5.86;100.00;104475.66;4788273;29;20477;-77
2022/03/20 08:02:07;;;;;;;5.93;1.67;;;;;;;6.02;100.00;104497.19;4812323;29;20070;-76
2022/03/20 08:04:32;;;;;;;4.80;1.35;;;;;;;6.07;100.00;104484.44;4821872;29;20148;-77
2022/03/20 08:06:58;;;;;;;4.40;1.63;;;;;;;6.10;100.00;104479.81;4809528;29;20125;-77
2022/03/20 08:09:27;;;;;;;4.07;1.67;;;;;;;6.25;100.00;104485.28;4799649;29;20141;-79
2022/03/20 08:11:53;;;;;;;5.63;1.55;;;;;;;6.29;100.00;104490.41;4792229;29;20071;-78
2022/03/20 08:14:18;;;;;;;5.60;1.83;;;;;;;6.38;100.00;104489.06;4773858;30;20147;-77
2022/03/20 08:16:44;;;;;;;4.25;1.52;;;;;;;6.24;100.00;104449.66;4791127;30;20055;-77
2022/03/20 08:19:11;;;;;;;4.28;1.73;;;;;;;6.42;100.00;104463.84;4778141;30;20047;-77
2022/03/20 08:21:38;;;;;;;3.65;1.80;;;;;;;6.66;100.00;104488.47;4792120;29;20038;-78
2022/03/20 08:24:03;;;;;;;4.93;1.75;;;;;;;6.78;100.00;104481.56;4809742;29;20023;-77
2022/03/20 08:26:33;;;;;;;3.80;1.90;;;;;;;6.93;100.00;104487.91;4783356;29;20159;-77
2022/03/20 08:28:59;;;;;;;6.22;2.03;;;;;;;6.94;100.00;104478.91;4774757;30;20031;-77
2022/03/20 08:31:26;;;;;;;4.72;2.30;;;;;;;7.01;100.00;104486.50;4789865;29;20035;-77
2022/03/20 08:33:51;;;;;;;4.53;1.90;;;;;;;7.12;100.00;104477.00;4807175;29;20026;-77
2022/03/20 08:36:17;;;;;;;6.07;1.92;;;;;;;7.13;100.00;104474.25;4776183;29;20046;-77
2022/03/20 08:38:43;;;;;;;4.07;1.80;;;;;;;7.20;100.00;104467.59;4793303;29;20031;-78
2022/03/20 08:41:09;;;;;;;3.55;1.70;;;;;;;7.18;100.00;104471.31;4777041;29;20054;-77
2022/03/20 08:43:34;;;;;;;5.82;1.67;;;;;;;7.25;100.00;104453.94;4794035;29;20035;-77
2022/03/20 08:46:00;;;;;;;4.82;1.63;;;;;;;6.91;100.00;104393.41;4759307;29;20039;-79
2022/03/20 08:48:25;;;;;;;3.05;1.40;;;;;;;7.35;100.00;104464.97;4808473;29;20366;-78
2022/03/20 08:50:51;;;;;;;6.40;1.33;;;;;;;7.27;100.00;104457.38;4796006;29;20043;-80
2022/03/20 08:53:18;;;;;;;6.10;1.70;;;;;;;7.03;100.00;104441.78;4804520;29;20034;-80
2022/03/20 08:55:44;;;;;;;6.65;1.55;;;;;;;7.14;100.00;104443.81;4793962;29;20113;-79
2022/03/20 08:58:10;;;;;;;3.60;1.50;;;;;;;7.22;100.00;104435.38;4830767;29;20045;-79
2022/03/20 09:00:35;;;;;;;5.20;1.50;;;;;;;7.32;100.00;104447.28;4765906;29;20035;-79
2022/03/20 09:03:01;;;;;;;5.70;1.35;;;;;;;7.21;97.38;104415.75;4775670;29;20098;-79
2022/03/20 09:05:26;;;;;;;3.50;1.30;;;;;;;7.61;99.65;104437.53;4782772;29;20441;-79
2022/03/20 09:07:53;;;;;;;3.38;1.38;;;;;;;7.51;99.89;104386.28;4816935;29;20034;-79
2022/03/20 09:10:19;;;;;;;6.85;1.38;;;;;;;7.94;100.00;104437.34;4786688;29;20122;-79
2022/03/20 09:12:45;;;;;;;2.00;1.10;;;;;;;8.02;99.21;104434.22;4774365;29;20458;-79
2022/03/20 09:15:13;;;;;;;2.15;1.30;;;;;;;7.81;97.57;104420.25;4797826;29;20533;-78
2022/03/20 09:20:24;;;;;;;3.17;1.30;;;;;;;8.31;98.38;104423.50;4793351;29;20038;-79
2022/03/20 09:22:50;;;;;;;3.25;1.15;;;;;;;8.21;97.42;104407.09;4797934;29;20532;-79
2022/03/20 09:25:15;;;;;;;2.78;1.50;;;;;;;8.40;97.10;104433.69;4794196;29;20095;-80
2022/03/20 09:27:41;;;;;;;3.50;1.35;;;;;;;8.43;95.79;104431.66;4824247;29;20122;-80
2022/03/20 09:30:07;;;;;;;2.50;1.10;;;;;;;8.50;95.06;104429.47;4797520;29;20114;-78
2022/03/20 09:32:33;;;;;;;2.63;1.17;;;;;;;8.23;91.75;104378.34;4798729;29;20044;-80
2022/03/20 09:34:58;;;;;;;4.53;1.50;;;;;;;8.50;64.86;104423.25;4782369;29;20036;-80
2022/03/20 09:37:24;;;;;;;4.10;1.30;;;;;;;8.45;65.28;104397.56;4748747;30;20043;-80
2022/03/20 09:39:49;;;;;;;5.97;1.25;;;;;;;8.70;64.62;104420.16;4804807;29;20034;-80
2022/03/20 09:42:18;;;;;;;2.50;1.20;;;;;;;8.53;62.48;104412.31;4805711;29;20059;-79
2022/03/20 09:44:44;;;;;;;3.47;1.13;;;;;;;8.72;62.45;104418.25;4784508;29;20042;-81
2022/03/20 09:47:12;;;;;;;6.03;1.30;;;;;;;8.72;62.08;104386.00;4785081;29;20031;-81
2022/03/20 09:49:38;;;;;;;3.42;1.17;;;;;;;8.98;61.34;104407.63;4801307;29;20065;-81
2022/03/20 09:52:07;;;;;;;2.63;0.90;;;;;;;8.97;57.84;104411.28;4798191;29;20035;-79
2022/03/20 09:54:36;;;;;;;4.07;1.27;;;;;;;9.11;57.15;104406.72;4788280;29;20096;-79
2022/03/20 09:57:07;;;;;;;2.05;0.60;;;;;;;9.12;55.62;104399.53;4791666;29;20030;-78
2022/03/20 09:59:34;;;;;;;2.95;0.80;;;;;;;9.21;54.36;104395.38;4786373;29;20051;-78
2022/03/20 10:02:02;;;;;;;3.63;0.85;;;;;;;9.32;54.62;104369.50;4798836;29;20050;-78
2022/03/20 10:04:28;;;;;;;3.03;1.00;;;;;;;9.50;53.10;104385.34;4791958;29;20114;-76
2022/03/20 10:06:53;;;;;;;2.17;1.02;;;;;;;9.47;53.15;104364.03;4771845;29;20119;-76
2022/03/20 10:09:18;;;;;;;4.28;0.90;;;;;;;9.70;54.12;104383.97;4805412;29;20045;-77
2022/03/20 10:11:50;;;;;;;5.18;0.95;;;;;;;9.58;51.35;104356.97;4776731;29;20035;-77
2022/03/20 10:14:19;;;;;;;3.03;1.00;;;;;;;9.89;52.70;104371.81;4789845;29;20447;-77
2022/03/20 10:16:55;;;;;;;2.97;1.00;;;;;;;9.87;47.72;104367.53;4789355;29;20031;-79
2022/03/20 10:19:23;;;;;;;3.78;0.95;;;;;;;9.77;46.03;104363.78;4796062;29;20056;-80
2022/03/20 10:22:19;;;;;;;3.03;0.82;;;;;;;9.98;46.40;104373.03;4793044;29;20030;-79
2022/03/20 10:24:50;;;;;;;2.28;0.70;;;;;;;10.19;48.12;104376.00;4796049;29;20099;-82
2022/03/20 10:27:16;;;;;;;1.52;0.60;;;;;;;10.00;41.71;104364.84;4773846;30;20057;-79
2022/03/20 10:29:58;;;;;;;4.10;0.70;;;;;;;10.05;40.09;104366.25;4775282;29;20462;-80
2022/03/20 10:32:25;;;;;;;1.52;0.70;;;;;;;10.28;42.13;104370.00;4789493;29;20042;-78
2022/03/20 10:34:58;;;;;;;3.80;0.70;;;;;;;10.39;43.79;104354.91;4796681;29;20067;-77
2022/03/20 10:37:46;;;;;;;1.23;0.60;;;;;;;10.42;43.35;104360.09;4783948;29;20033;-77
2022/03/20 10:40:15;;;;;;;1.40;0.50;;;;;;;10.60;43.08;104345.28;4801644;29;20039;-77
2022/03/20 10:42:42;;;;;;;3.22;0.70;;;;;;;10.65;43.49;104350.34;4790594;29;20078;-77
2022/03/20 10:45:08;;;;;;;5.13;1.02;;;;;;;10.67;42.73;104354.66;4813994;29;20026;-77
2022/03/20 10:47:34;;;;;;;2.67;0.93;;;;;;;10.68;41.93;104350.97;4797947;29;20380;-76
2022/03/20 10:50:02;;;;;;;4.38;1.08;;;;;;;10.40;47.09;104357.53;4806318;29;20466;-78
2022/03/20 10:52:29;;;;;;;3.20;1.23;;;;;;;9.84;50.05;104351.63;4811014;29;20404;-78
2022/03/20 10:54:55;;;;;;;2.70;0.90;;;;;;;9.70;49.51;104339.13;4822644;29;20042;-78
2022/03/20 10:57:21;;;;;;;2.35;1.17;;;;;;;9.64;50.52;104347.63;4823374;29;20050;-78
2022/03/20 11:00:02;;;;;;;3.53;0.90;;;;;;;9.51;50.60;104346.75;4803016;29;20062;-78
2022/03/20 11:02:28;;;;;;;2.08;0.98;;;;;;;9.51;49.64;104326.09;4790298;30;20035;-80
2022/03/20 11:04:54;;;;;;;3.05;0.85;;;;;;;9.45;50.77;104328.34;4807511;29;20039;-80
2022/03/20 11:07:21;;;;;;;1.70;0.80;;;;;;;9.45;51.56;104317.59;4794521;29;20068;-80
2022/03/20 11:09:50;;;;;;;3.45;0.90;;;;;;;9.44;52.28;104319.44;4773716;30;20069;-80
2022/03/20 11:12:22;;;;;;;2.67;0.80;;;;;;;9.36;53.58;104311.88;4802374;29;20681;-80
2022/03/20 11:14:48;;;;;;;2.42;1.10;;;;;;;9.38;55.46;104315.31;4791239;29;20049;-80
2022/03/20 11:17:18;;;;;;;1.63;0.80;;;;;;;9.46;54.45;104322.84;4807919;29;20377;-80
2022/03/20 11:19:50;;;;;;;2.72;0.98;;;;;;;9.62;51.95;104319.97;4809108;29;20112;-80
2022/03/20 11:22:20;;;;;;;2.22;0.80;;;;;;;9.87;50.88;104311.91;4792361;29;20067;-79
2022/03/20 11:24:47;;;;;;;1.35;0.55;;;;;;;10.24;48.80;104319.19;4793374;29;20042;-80
2022/03/20 11:27:17;;;;;;;1.83;0.70;;;;;;;10.31;47.30;104291.75;4776024;30;20470;-80
2022/03/20 11:29:48;;;;;;;1.45;0.80;;;;;;;10.56;47.59;104319.53;4797594;29;20039;-81
2022/03/20 11:32:14;;;;;;;3.80;0.90;;;;;;;10.67;47.44;104308.00;4827080;29;20046;-83
2022/03/20 11:34:42;;;;;;;2.25;1.00;;;;;;;10.71;47.93;104291.47;4829180;29;20050;-83
2022/03/20 11:40:10;;;;;;;2.38;1.15;;;;;;;9.92;49.91;104149.31;4825990;29;20066;-84
2022/03/20 11:42:37;;;;;;;2.83;0.90;;;;;;;10.41;49.89;104203.09;4826262;29;20018;-84
2022/03/20 11:45:21;;;;;;;4.03;1.08;;;;;;;10.93;48.63;104290.75;4817329;29;20039;-82
2022/03/20 11:47:51;;;;;;;2.28;1.13;;;;;;;10.74;48.78;104244.59;4808143;29;20035;-80
2022/03/20 11:50:25;;;;;;;3.08;1.20;;;;;;;10.91;48.52;104254.09;4800230;29;20047;-80
2022/03/20 11:53:00;;;;;;;3.90;1.50;;;;;;;11.03;49.47;104267.50;4815236;29;20067;-80
2022/03/20 11:55:40;;;;;;;;;;;;;;;11.11;48.68;104277.69;4808752;29;20122;-78
2022/03/20 11:58:35;;;;;;;3.92;1.80;;;;;;;10.75;48.93;104224.75;4796800;29;20037;-78